createdAt,value
2023-03-02T00:04:50.432Z,82.03
2023-03-02T00:10:06.956Z,86.22
2023-03-02T00:15:22.583Z,100.03
2023-03-02T00:20:38.962Z,87.20
2023-03-02T00:25:55.061Z,81.70
2023-03-02T00:31:11.453Z,83.65
2023-03-02T00:36:27.183Z,74.03
2023-03-02T00:41:42.714Z,69.30
2023-03-02T00:46:58.708Z,70.72
2023-03-02T00:52:14.899Z,67.18
2023-03-02T00:57:30.519Z,69.75
2023-03-02T01:02:46.097Z,71.60
2023-03-02T01:08:01.911Z,69.28
2023-03-02T01:13:18.520Z,67.82
2023-03-02T01:18:38.875Z,64.50
2023-03-02T01:23:54.418Z,70.63
2023-03-02T01:29:11.738Z,77.43
2023-03-02T01:34:27.503Z,74.60
2023-03-02T01:39:42.827Z,72.18
2023-03-02T01:44:59.749Z,67.95
2023-03-02T01:50:23.447Z,75.53
2023-03-02T01:55:40.216Z,73.07
2023-03-02T02:00:58.007Z,84.38
2023-03-02T02:06:24.783Z,74.80
2023-03-02T02:11:40.407Z,71.97
2023-03-02T02:16:56.788Z,66.07
2023-03-02T02:22:15.732Z,67.82
2023-03-02T02:27:34.320Z,69.82
2023-03-02T02:32:53.295Z,76.88
2023-03-02T02:38:11.612Z,69.00
2023-03-02T02:43:31.238Z,86.65
2023-03-02T02:48:46.816Z,81.85
2023-03-02T02:54:04.338Z,83.63
2023-03-02T02:59:29.201Z,75.07
2023-03-02T03:04:44.889Z,71.28
2023-03-02T03:10:24.769Z,77.43
2023-03-02T03:15:40.995Z,79.63
2023-03-02T03:20:56.644Z,75.85
2023-03-02T03:26:12.352Z,79.95
2023-03-02T03:31:28.971Z,83.43
2023-03-02T03:36:44.642Z,81.47
2023-03-02T03:42:00.580Z,78.88
2023-03-02T03:47:16.004Z,76.10
2023-03-02T03:52:31.857Z,87.97
2023-03-02T03:57:47.715Z,80.88
2023-03-02T04:03:03.778Z,81.47
2023-03-02T04:08:20.011Z,82.85
2023-03-02T04:13:35.536Z,83.85
2023-03-02T04:18:50.988Z,92.38
2023-03-02T04:24:08.067Z,77.68
2023-03-02T04:29:24.172Z,75.40
2023-03-02T04:34:39.601Z,75.65
2023-03-02T04:39:55.767Z,78.40
2023-03-02T04:45:12.022Z,76.22
2023-03-02T04:50:27.724Z,69.93
2023-03-02T04:55:43.718Z,74.72
2023-03-02T05:01:02.642Z,76.53
2023-03-02T05:06:21.994Z,82.63
2023-03-02T05:11:38.590Z,93.18
2023-03-02T05:16:54.592Z,81.78
2023-03-02T05:22:10.422Z,84.97
2023-03-02T05:27:25.882Z,84.47
2023-03-02T05:32:41.816Z,78.55
2023-03-02T05:37:58.051Z,79.68
2023-03-02T05:43:17.796Z,76.07
2023-03-02T05:48:33.319Z,80.18
2023-03-02T05:53:49.535Z,69.10
2023-03-02T05:59:05.241Z,70.97
2023-03-02T06:04:21.108Z,70.00
2023-03-02T06:09:38.417Z,80.40
2023-03-02T06:14:54.196Z,78.47
2023-03-02T06:20:11.912Z,81.47
2023-03-02T06:25:27.895Z,89.03
2023-03-02T06:30:43.160Z,81.60
2023-03-02T06:35:58.863Z,84.47
2023-03-02T06:41:14.905Z,81.97
2023-03-02T06:46:30.780Z,84.38
2023-03-02T06:51:46.831Z,80.25
2023-03-02T06:57:02.593Z,85.85
2023-03-02T07:02:18.202Z,83.70
2023-03-02T07:07:33.764Z,87.90
2023-03-02T07:12:49.557Z,79.40
2023-03-02T07:18:05.096Z,87.93
2023-03-02T07:23:20.913Z,95.00
2023-03-02T07:28:39.701Z,81.25
2023-03-02T07:33:55.195Z,82.90
2023-03-02T07:39:10.664Z,93.43
2023-03-02T07:44:26.222Z,130.18
2023-03-02T07:49:41.775Z,95.28
2023-03-02T07:54:57.969Z,97.97
2023-03-02T08:00:13.985Z,88.68
2023-03-02T08:05:29.404Z,80.43
2023-03-02T08:10:45.027Z,76.72
2023-03-02T08:16:02.165Z,83.40
2023-03-02T08:21:20.093Z,78.20
2023-03-02T08:26:35.552Z,91.60
2023-03-02T08:31:51.670Z,81.95
2023-03-02T08:37:07.403Z,77.07
2023-03-02T08:42:22.850Z,76.65
2023-03-02T08:47:38.495Z,76.63
2023-03-02T08:52:54.389Z,82.78
2023-03-02T08:58:09.772Z,79.63
2023-03-02T09:03:25.131Z,73.32
2023-03-02T09:08:40.974Z,66.28
2023-03-02T09:13:56.426Z,64.25
2023-03-02T09:19:13.944Z,66.20
2023-03-02T09:24:29.338Z,71.15
2023-03-02T09:29:44.704Z,64.95
2023-03-02T09:35:00.585Z,70.18
2023-03-02T09:40:21.858Z,67.50
2023-03-02T09:45:55.657Z,68.40
2023-03-02T09:51:33.435Z,54.33
2023-03-02T09:56:54.645Z,62.30
2023-03-02T10:07:39.244Z,54.75
2023-03-02T10:13:27.368Z,62.47
2023-03-02T10:18:49.735Z,53.42
2023-03-02T10:24:35.274Z,60.65
2023-03-02T10:30:03.760Z,51.38
2023-03-02T10:35:23.403Z,57.38
2023-03-02T10:40:43.519Z,57.37
2023-03-02T10:46:11.369Z,45.53
2023-03-02T10:51:30.755Z,37.97
2023-03-02T10:56:52.455Z,47.22
2023-03-02T11:02:17.463Z,32.38
2023-03-02T11:07:33.413Z,35.90
2023-03-02T11:12:51.343Z,35.72
2023-03-02T11:18:11.987Z,41.63
2023-03-02T11:23:41.453Z,43.88
2023-03-02T11:29:03.024Z,42.25
2023-03-02T11:34:59.130Z,39.72
2023-03-02T11:40:27.037Z,45.67
2023-03-02T11:45:48.565Z,45.15
2023-03-02T11:51:13.643Z,41.17
2023-03-02T11:56:33.714Z,33.70
2023-03-02T12:01:53.168Z,41.97
2023-03-02T12:07:24.970Z,39.90
2023-03-02T12:12:58.035Z,41.65
2023-03-02T12:18:22.973Z,41.83
2023-03-02T12:23:47.646Z,41.20
2023-03-02T12:29:24.700Z,34.10
2023-03-02T12:34:51.428Z,36.80
2023-03-02T12:40:39.274Z,36.22
2023-03-02T12:46:33.631Z,34.55
2023-03-02T12:51:54.243Z,42.15
2023-03-02T12:57:18.840Z,33.72
2023-03-02T13:02:36.572Z,33.80
2023-03-02T13:08:06.461Z,34.65
2023-03-02T13:13:42.476Z,34.85
2023-03-02T13:19:06.407Z,33.22
2023-03-02T13:24:44.866Z,44.85
2023-03-02T13:30:24.902Z,37.83
2023-03-02T13:35:47.724Z,34.65
2023-03-02T13:41:04.174Z,33.40
2023-03-02T13:46:20.428Z,31.42
2023-03-02T13:51:40.399Z,34.60
2023-03-02T13:56:58.635Z,28.75
2023-03-02T14:02:27.132Z,28.88
2023-03-02T14:07:42.640Z,28.60
2023-03-02T14:13:25.602Z,30.33
2023-03-02T14:18:45.129Z,28.65
2023-03-02T14:24:00.792Z,34.55
2023-03-02T14:29:31.950Z,30.25
2023-03-02T14:34:48.120Z,32.60
2023-03-02T14:40:04.147Z,30.65
2023-03-02T14:45:21.578Z,31.02
2023-03-02T14:50:42.344Z,27.45
2023-03-02T14:55:58.256Z,36.75
2023-03-02T15:01:14.043Z,35.00
2023-03-02T15:06:33.432Z,47.65
2023-03-02T15:11:49.414Z,33.83
2023-03-02T15:17:05.707Z,33.60
2023-03-02T15:22:21.314Z,40.20
2023-03-02T15:27:36.954Z,32.20
2023-03-02T15:32:54.998Z,31.98
2023-03-02T15:38:11.442Z,32.50
2023-03-02T15:43:27.604Z,31.40
2023-03-02T15:48:43.452Z,37.55
2023-03-02T15:53:59.601Z,40.08
2023-03-02T15:59:16.347Z,34.15
2023-03-02T16:04:33.784Z,32.30
2023-03-02T16:09:49.417Z,32.88
2023-03-02T16:15:06.272Z,25.17
2023-03-02T16:20:21.671Z,23.58
2023-03-02T16:25:43.618Z,30.20
2023-03-02T16:31:07.926Z,35.80
2023-03-02T16:36:23.856Z,23.40
2023-03-02T16:41:42.470Z,25.65
2023-03-02T16:46:58.163Z,22.52
2023-03-02T16:52:14.054Z,31.15
2023-03-02T16:57:29.614Z,34.75
2023-03-02T17:02:46.493Z,31.35
2023-03-02T17:08:03.025Z,34.17
2023-03-02T17:13:18.780Z,39.00
2023-03-02T17:18:34.947Z,39.92
2023-03-02T17:23:50.618Z,31.45
2023-03-02T17:29:08.088Z,31.55
2023-03-02T17:34:23.566Z,34.25
2023-03-02T17:39:39.125Z,36.05
2023-03-02T17:44:54.855Z,39.15
2023-03-02T17:50:12.188Z,35.45
2023-03-02T17:55:27.869Z,35.25
2023-03-02T18:00:43.809Z,36.42
2023-03-02T18:06:00.111Z,46.63
2023-03-02T18:11:21.476Z,32.67
2023-03-02T18:16:37.584Z,33.05
2023-03-02T18:21:54.328Z,34.80
2023-03-02T18:27:09.949Z,33.63
2023-03-02T18:32:26.154Z,40.63
2023-03-02T18:37:42.068Z,39.17
2023-03-02T18:42:58.163Z,31.90
2023-03-02T18:48:13.988Z,35.63
2023-03-02T18:53:29.941Z,34.65
2023-03-02T18:58:45.940Z,40.88
2023-03-02T19:04:02.482Z,42.88
2023-03-02T19:09:18.081Z,38.72
2023-03-02T19:14:35.430Z,34.65
2023-03-02T19:19:51.588Z,40.47
2023-03-02T19:25:08.029Z,38.30
2023-03-02T19:30:27.003Z,34.22
2023-03-02T19:35:43.550Z,34.22
2023-03-02T19:41:00.583Z,41.17
2023-03-02T19:46:17.795Z,41.40
2023-03-02T19:51:33.551Z,39.65
2023-03-02T19:56:53.755Z,46.58
2023-03-02T20:02:09.539Z,45.30
2023-03-02T20:07:25.428Z,45.03
2023-03-02T20:12:41.439Z,44.42
2023-03-02T20:17:59.575Z,49.97
2023-03-02T20:23:16.234Z,43.38
2023-03-02T20:28:33.220Z,43.28
2023-03-02T20:33:52.897Z,43.28
2023-03-02T20:39:30.960Z,45.47
2023-03-02T20:44:47.041Z,43.42
2023-03-02T20:50:06.360Z,44.17
2023-03-02T20:55:22.100Z,37.40
2023-03-02T21:00:39.711Z,41.88
2023-03-02T21:05:56.708Z,43.92
2023-03-02T21:11:16.588Z,43.45
2023-03-02T21:16:37.389Z,42.33
2023-03-02T21:21:55.535Z,45.17
2023-03-02T21:27:11.500Z,46.50
2023-03-02T21:32:27.448Z,46.50
2023-03-02T21:37:44.714Z,44.47
2023-03-02T21:43:02.016Z,43.95
2023-03-02T21:48:18.117Z,46.42
2023-03-02T21:53:34.594Z,44.88
2023-03-02T21:58:53.057Z,42.95
2023-03-02T22:04:08.564Z,60.38
2023-03-02T22:09:24.021Z,65.57
2023-03-02T22:14:39.922Z,53.78
2023-03-02T22:19:55.613Z,53.05
2023-03-02T22:25:17.582Z,46.30
2023-03-02T22:30:33.439Z,47.97
2023-03-02T22:35:51.012Z,52.88
2023-03-02T22:41:13.302Z,40.80
2023-03-02T22:46:28.962Z,38.80
2023-03-02T22:51:45.493Z,40.00
2023-03-02T22:57:03.297Z,36.10
2023-03-02T23:02:22.658Z,45.25
2023-03-02T23:07:38.251Z,42.60
2023-03-02T23:12:53.970Z,44.50
2023-03-02T23:18:23.196Z,43.17
2023-03-02T23:23:39.071Z,39.95
2023-03-02T23:28:55.111Z,44.78
2023-03-02T23:34:12.027Z,40.40
2023-03-02T23:39:27.747Z,43.20
2023-03-02T23:44:43.720Z,43.85
2023-03-02T23:49:59.828Z,43.70
2023-03-02T23:55:15.695Z,39.97
